Portada
METAR-TAF:

METAR-TAF

Aeroports :

Pohnpei, Micronèsia

latitud: 06-59N, longitud: 158-12E, altitud: 2 m

Observació

L'informe es va fer fa 14 hores i 0 minuts, a les 03:53 UTC
Vent 10 kt del Oest/Nord-Oest
Temperatura 29°C
Humitat 84%
Pressió 1005 hPa
Visibilitat: 24.1 km
Cel ennuvolat a una alçada de 1700 ft, Cumulus congestus.
Cel cobert a una alçada de 12000 ft

METAR: PTPN 230353Z 30010KT 15SM BKN017TCU OVC120 29/26 A2968 RMK TCU ALQDS LAST

Hora: 04:53 (17:53 UTC)

Pronòstic

L'informe es va fer fa 14 hores i 34 minuts, a les 03:19 UTC
Pronòstic vàlid del 23 a les 03 UTC al 23 a les 24 UTC
Vent 14 kt del Oest
Visibilitat: 10 km
Cel ennuvolat a una alçada de 1700 ft
Cel ennuvolat a una alçada de 12000 ft
xàfecs en les proximitats

TAF: PTPN 230319Z 2303/2324 28014KT P6SM VCSH BKN017 BKN120

Observacions i pronòstics meteorològics de més de 4000 aeroports (METAR i TAF).

Les estacions disponibles són els punts grocs i vermells al mapa.

Posi el ratolí al punt desitjat per veure el nom de l'estació.

Feu clic per veure les observacions i els pronòstics meteorològics.

Per canviar el mapa: feu clic els botons verds amb una creu de color negre per apropar; al botó verd amb un guió per allunyar la imatge; o en les fletxes verdes per a mapes adjacents.


METAR-TAF: